Terminal Aerodrome Forecast
Issued by NWS

Home | Current Version | Previous Version | Text Only | Print | Product List | Glossary On
Versions: 1 2 3 4 5 6 7 8 9 10 11 12 13 14 15 16 17 18 19 20
000
FTUS41 KPBZ 010200 AAA
TAFHLG
TAF AMD
KHLG 010224Z 0102/0124 VRB03KT 6SM -SHRA BR SCT008 OVC015
      TEMPO 0102/0106 3SM -SHRA BKN008
     FM010900 34012KT P6SM VCSH BKN015
     FM011800 34012G22KT P6SM VCSH BKN025=

USA.gov is the U.S. government's official web portal to all federal, state and local government web resources and services.